sensor_id;sensor_type;location;lat;lon;timestamp;P1;durP1;ratioP1;P2;durP2;ratioP2
25948;SDS011;13961;51.178;4.448;2023-05-20T00:00:26;12.35;;;7.07;;
25948;SDS011;13961;51.178;4.448;2023-05-20T00:02:52;13.80;;;6.70;;
25948;SDS011;13961;51.178;4.448;2023-05-20T00:05:17;10.73;;;6.35;;
25948;SDS011;13961;51.178;4.448;2023-05-20T00:07:43;12.93;;;6.82;;
25948;SDS011;13961;51.178;4.448;2023-05-20T00:10:09;14.48;;;6.60;;
25948;SDS011;13961;51.178;4.448;2023-05-20T00:12:36;10.98;;;6.43;;
25948;SDS011;13961;51.178;4.448;2023-05-20T00:15:03;10.02;;;6.03;;
25948;SDS011;13961;51.178;4.448;2023-05-20T00:17:29;12.50;;;6.88;;
25948;SDS011;13961;51.178;4.448;2023-05-20T00:19:55;12.88;;;5.93;;
25948;SDS011;13961;51.178;4.448;2023-05-20T00:22:21;10.38;;;6.18;;
25948;SDS011;13961;51.178;4.448;2023-05-20T00:24:46;9.85;;;5.93;;
25948;SDS011;13961;51.178;4.448;2023-05-20T00:27:12;8.55;;;5.60;;
25948;SDS011;13961;51.178;4.448;2023-05-20T00:29:38;6.82;;;5.38;;
25948;SDS011;13961;51.178;4.448;2023-05-20T00:32:04;9.85;;;4.90;;
25948;SDS011;13961;51.178;4.448;2023-05-20T00:34:30;11.30;;;5.15;;
25948;SDS011;13961;51.178;4.448;2023-05-20T00:36:55;13.68;;;5.20;;
25948;SDS011;13961;51.178;4.448;2023-05-20T00:39:21;10.27;;;4.97;;
25948;SDS011;13961;51.178;4.448;2023-05-20T00:41:47;7.60;;;4.78;;
25948;SDS011;13961;51.178;4.448;2023-05-20T00:44:12;10.75;;;4.57;;
25948;SDS011;13961;51.178;4.448;2023-05-20T00:46:38;11.35;;;4.68;;
25948;SDS011;13961;51.178;4.448;2023-05-20T00:49:04;9.50;;;4.53;;
25948;SDS011;13961;51.178;4.448;2023-05-20T00:51:30;11.48;;;4.72;;
25948;SDS011;13961;51.178;4.448;2023-05-20T00:53:56;10.63;;;4.25;;
25948;SDS011;13961;51.178;4.448;2023-05-20T00:56:22;13.00;;;4.88;;
25948;SDS011;13961;51.178;4.448;2023-05-20T00:58:49;7.68;;;4.30;;
25948;SDS011;13961;51.178;4.448;2023-05-20T01:01:15;7.75;;;3.90;;
25948;SDS011;13961;51.178;4.448;2023-05-20T01:03:41;9.45;;;4.10;;
25948;SDS011;13961;51.178;4.448;2023-05-20T01:06:06;7.70;;;4.40;;
25948;SDS011;13961;51.178;4.448;2023-05-20T01:08:32;7.68;;;4.10;;
25948;SDS011;13961;51.178;4.448;2023-05-20T01:11:10;7.10;;;4.13;;
25948;SDS011;13961;51.178;4.448;2023-05-20T01:13:39;6.63;;;3.55;;
25948;SDS011;13961;51.178;4.448;2023-05-20T01:16:10;9.13;;;3.70;;
25948;SDS011;13961;51.178;4.448;2023-05-20T01:18:38;7.43;;;3.58;;
25948;SDS011;13961;51.178;4.448;2023-05-20T01:21:08;7.30;;;3.78;;
25948;SDS011;13961;51.178;4.448;2023-05-20T01:23:38;6.63;;;3.63;;
25948;SDS011;13961;51.178;4.448;2023-05-20T01:26:05;7.68;;;3.90;;
25948;SDS011;13961;51.178;4.448;2023-05-20T01:28:34;8.45;;;4.03;;
25948;SDS011;13961;51.178;4.448;2023-05-20T01:31:03;9.63;;;4.03;;
25948;SDS011;13961;51.178;4.448;2023-05-20T01:33:30;9.52;;;4.35;;
25948;SDS011;13961;51.178;4.448;2023-05-20T01:36:00;5.20;;;3.25;;
25948;SDS011;13961;51.178;4.448;2023-05-20T01:38:26;8.43;;;3.88;;
25948;SDS011;13961;51.178;4.448;2023-05-20T01:40:52;7.57;;;4.30;;
25948;SDS011;13961;51.178;4.448;2023-05-20T01:43:19;10.52;;;4.18;;
25948;SDS011;13961;51.178;4.448;2023-05-20T01:45:45;8.73;;;3.70;;
25948;SDS011;13961;51.178;4.448;2023-05-20T01:48:11;6.90;;;4.00;;
25948;SDS011;13961;51.178;4.448;2023-05-20T01:50:37;8.02;;;3.60;;
25948;SDS011;13961;51.178;4.448;2023-05-20T01:53:03;6.88;;;3.65;;
25948;SDS011;13961;51.178;4.448;2023-05-20T01:55:32;5.65;;;3.67;;
25948;SDS011;13961;51.178;4.448;2023-05-20T01:57:58;6.93;;;3.53;;
25948;SDS011;13961;51.178;4.448;2023-05-20T02:00:23;9.80;;;3.80;;
25948;SDS011;13961;51.178;4.448;2023-05-20T02:02:49;9.13;;;4.10;;
25948;SDS011;13961;51.178;4.448;2023-05-20T02:05:15;7.30;;;3.90;;
25948;SDS011;13961;51.178;4.448;2023-05-20T02:07:42;8.82;;;4.38;;
25948;SDS011;13961;51.178;4.448;2023-05-20T02:10:07;5.45;;;3.95;;
25948;SDS011;13961;51.178;4.448;2023-05-20T02:12:33;8.50;;;3.88;;
25948;SDS011;13961;51.178;4.448;2023-05-20T02:14:59;14.80;;;4.32;;
25948;SDS011;13961;51.178;4.448;2023-05-20T02:17:25;7.90;;;4.00;;
25948;SDS011;13961;51.178;4.448;2023-05-20T02:19:51;8.80;;;4.20;;
25948;SDS011;13961;51.178;4.448;2023-05-20T02:22:16;11.75;;;4.35;;
25948;SDS011;13961;51.178;4.448;2023-05-20T02:24:42;8.40;;;4.00;;
25948;SDS011;13961;51.178;4.448;2023-05-20T02:27:08;7.93;;;4.15;;
25948;SDS011;13961;51.178;4.448;2023-05-20T02:29:34;7.82;;;4.03;;
25948;SDS011;13961;51.178;4.448;2023-05-20T02:32:01;10.95;;;4.03;;
25948;SDS011;13961;51.178;4.448;2023-05-20T02:34:27;6.32;;;4.20;;
25948;SDS011;13961;51.178;4.448;2023-05-20T02:36:54;11.38;;;4.10;;
25948;SDS011;13961;51.178;4.448;2023-05-20T02:39:21;6.47;;;3.90;;
25948;SDS011;13961;51.178;4.448;2023-05-20T02:41:47;8.77;;;4.55;;
25948;SDS011;13961;51.178;4.448;2023-05-20T02:44:13;8.65;;;4.22;;
25948;SDS011;13961;51.178;4.448;2023-05-20T02:46:39;10.82;;;4.32;;
25948;SDS011;13961;51.178;4.448;2023-05-20T02:49:06;11.07;;;4.15;;
25948;SDS011;13961;51.178;4.448;2023-05-20T02:51:32;9.57;;;4.25;;
25948;SDS011;13961;51.178;4.448;2023-05-20T02:53:58;12.50;;;4.80;;
25948;SDS011;13961;51.178;4.448;2023-05-20T02:56:23;7.07;;;4.43;;
25948;SDS011;13961;51.178;4.448;2023-05-20T02:58:51;10.18;;;4.55;;
25948;SDS011;13961;51.178;4.448;2023-05-20T03:01:17;9.23;;;4.25;;
25948;SDS011;13961;51.178;4.448;2023-05-20T03:03:42;9.98;;;4.85;;
25948;SDS011;13961;51.178;4.448;2023-05-20T03:06:08;10.15;;;4.57;;
25948;SDS011;13961;51.178;4.448;2023-05-20T03:08:34;8.95;;;5.00;;
25948;SDS011;13961;51.178;4.448;2023-05-20T03:11:00;8.98;;;4.25;;
25948;SDS011;13961;51.178;4.448;2023-05-20T03:13:26;8.27;;;4.80;;
25948;SDS011;13961;51.178;4.448;2023-05-20T03:15:52;11.68;;;5.20;;
25948;SDS011;13961;51.178;4.448;2023-05-20T03:18:19;9.60;;;4.65;;
25948;SDS011;13961;51.178;4.448;2023-05-20T03:20:45;13.63;;;4.82;;
25948;SDS011;13961;51.178;4.448;2023-05-20T03:23:11;11.75;;;5.00;;
25948;SDS011;13961;51.178;4.448;2023-05-20T03:25:37;13.93;;;5.13;;
25948;SDS011;13961;51.178;4.448;2023-05-20T03:28:04;9.25;;;4.80;;
25948;SDS011;13961;51.178;4.448;2023-05-20T03:30:30;7.43;;;4.53;;
25948;SDS011;13961;51.178;4.448;2023-05-20T03:32:56;12.40;;;5.05;;
25948;SDS011;13961;51.178;4.448;2023-05-20T03:35:22;12.57;;;5.00;;
25948;SDS011;13961;51.178;4.448;2023-05-20T03:37:48;11.27;;;4.72;;
25948;SDS011;13961;51.178;4.448;2023-05-20T03:40:15;9.70;;;5.00;;
25948;SDS011;13961;51.178;4.448;2023-05-20T03:42:41;10.20;;;5.07;;
25948;SDS011;13961;51.178;4.448;2023-05-20T03:45:07;8.05;;;4.80;;
25948;SDS011;13961;51.178;4.448;2023-05-20T03:47:33;7.03;;;4.78;;
25948;SDS011;13961;51.178;4.448;2023-05-20T03:49:59;8.30;;;5.32;;
25948;SDS011;13961;51.178;4.448;2023-05-20T03:52:25;10.70;;;5.65;;
25948;SDS011;13961;51.178;4.448;2023-05-20T03:54:52;10.73;;;5.30;;
25948;SDS011;13961;51.178;4.448;2023-05-20T03:57:18;12.48;;;5.63;;
25948;SDS011;13961;51.178;4.448;2023-05-20T03:59:44;9.20;;;5.15;;
25948;SDS011;13961;51.178;4.448;2023-05-20T04:02:09;12.10;;;5.47;;
25948;SDS011;13961;51.178;4.448;2023-05-20T04:04:36;10.45;;;5.03;;
25948;SDS011;13961;51.178;4.448;2023-05-20T04:07:02;6.95;;;4.68;;
25948;SDS011;13961;51.178;4.448;2023-05-20T04:09:29;11.00;;;5.63;;
25948;SDS011;13961;51.178;4.448;2023-05-20T04:11:55;8.82;;;5.32;;
25948;SDS011;13961;51.178;4.448;2023-05-20T04:14:21;8.25;;;4.97;;
25948;SDS011;13961;51.178;4.448;2023-05-20T04:16:47;7.93;;;4.85;;
25948;SDS011;13961;51.178;4.448;2023-05-20T04:19:14;10.82;;;5.28;;
25948;SDS011;13961;51.178;4.448;2023-05-20T04:21:41;11.80;;;4.82;;
25948;SDS011;13961;51.178;4.448;2023-05-20T04:24:07;10.27;;;5.40;;
25948;SDS011;13961;51.178;4.448;2023-05-20T04:26:33;9.23;;;4.88;;
25948;SDS011;13961;51.178;4.448;2023-05-20T04:29:00;8.68;;;4.90;;
25948;SDS011;13961;51.178;4.448;2023-05-20T04:31:28;8.45;;;5.20;;
25948;SDS011;13961;51.178;4.448;2023-05-20T04:33:56;9.93;;;5.38;;
25948;SDS011;13961;51.178;4.448;2023-05-20T04:36:22;8.57;;;5.10;;
25948;SDS011;13961;51.178;4.448;2023-05-20T04:38:55;11.38;;;5.53;;
25948;SDS011;13961;51.178;4.448;2023-05-20T04:41:21;11.32;;;5.50;;
25948;SDS011;13961;51.178;4.448;2023-05-20T04:43:48;11.07;;;4.97;;
25948;SDS011;13961;51.178;4.448;2023-05-20T04:46:14;11.45;;;5.57;;
25948;SDS011;13961;51.178;4.448;2023-05-20T04:48:40;8.32;;;5.00;;
25948;SDS011;13961;51.178;4.448;2023-05-20T04:51:08;10.57;;;5.40;;
25948;SDS011;13961;51.178;4.448;2023-05-20T04:53:34;7.93;;;5.10;;
25948;SDS011;13961;51.178;4.448;2023-05-20T04:56:00;11.60;;;5.20;;
25948;SDS011;13961;51.178;4.448;2023-05-20T04:58:27;9.20;;;4.90;;
25948;SDS011;13961;51.178;4.448;2023-05-20T05:00:54;7.35;;;5.15;;
25948;SDS011;13961;51.178;4.448;2023-05-20T05:03:20;10.82;;;5.38;;
25948;SDS011;13961;51.178;4.448;2023-05-20T05:05:46;10.35;;;5.53;;
25948;SDS011;13961;51.178;4.448;2023-05-20T05:08:12;11.25;;;5.97;;
25948;SDS011;13961;51.178;4.448;2023-05-20T05:10:38;8.75;;;4.88;;
25948;SDS011;13961;51.178;4.448;2023-05-20T05:13:05;13.55;;;4.93;;
25948;SDS011;13961;51.178;4.448;2023-05-20T05:15:30;9.43;;;5.13;;
25948;SDS011;13961;51.178;4.448;2023-05-20T05:17:56;13.18;;;4.95;;
25948;SDS011;13961;51.178;4.448;2023-05-20T05:20:22;13.73;;;5.13;;
25948;SDS011;13961;51.178;4.448;2023-05-20T05:22:47;7.28;;;4.97;;
25948;SDS011;13961;51.178;4.448;2023-05-20T05:25:14;12.10;;;5.10;;
25948;SDS011;13961;51.178;4.448;2023-05-20T05:27:41;8.10;;;4.80;;
25948;SDS011;13961;51.178;4.448;2023-05-20T05:30:08;11.20;;;5.22;;
25948;SDS011;13961;51.178;4.448;2023-05-20T05:32:35;9.75;;;5.15;;
25948;SDS011;13961;51.178;4.448;2023-05-20T05:35:01;11.70;;;5.10;;
25948;SDS011;13961;51.178;4.448;2023-05-20T05:37:28;10.43;;;4.68;;
25948;SDS011;13961;51.178;4.448;2023-05-20T05:39:53;7.25;;;4.28;;
25948;SDS011;13961;51.178;4.448;2023-05-20T05:42:19;11.02;;;4.90;;
25948;SDS011;13961;51.178;4.448;2023-05-20T05:44:45;8.30;;;4.80;;
25948;SDS011;13961;51.178;4.448;2023-05-20T05:47:11;10.63;;;5.20;;
25948;SDS011;13961;51.178;4.448;2023-05-20T05:49:37;6.63;;;4.60;;
25948;SDS011;13961;51.178;4.448;2023-05-20T05:52:03;10.38;;;4.45;;
25948;SDS011;13961;51.178;4.448;2023-05-20T05:54:29;10.10;;;5.28;;
25948;SDS011;13961;51.178;4.448;2023-05-20T05:56:54;9.07;;;4.80;;
25948;SDS011;13961;51.178;4.448;2023-05-20T05:59:20;10.82;;;4.50;;
25948;SDS011;13961;51.178;4.448;2023-05-20T06:01:46;12.23;;;5.13;;
25948;SDS011;13961;51.178;4.448;2023-05-20T06:04:12;10.50;;;4.70;;
25948;SDS011;13961;51.178;4.448;2023-05-20T06:06:37;8.90;;;4.78;;
25948;SDS011;13961;51.178;4.448;2023-05-20T06:09:03;11.25;;;4.78;;
25948;SDS011;13961;51.178;4.448;2023-05-20T06:11:29;7.47;;;5.00;;
25948;SDS011;13961;51.178;4.448;2023-05-20T06:13:55;8.57;;;4.80;;
25948;SDS011;13961;51.178;4.448;2023-05-20T06:16:20;10.15;;;5.10;;
25948;SDS011;13961;51.178;4.448;2023-05-20T06:18:46;11.20;;;5.00;;
25948;SDS011;13961;51.178;4.448;2023-05-20T06:21:14;7.20;;;4.60;;
25948;SDS011;13961;51.178;4.448;2023-05-20T06:23:40;9.15;;;5.00;;
25948;SDS011;13961;51.178;4.448;2023-05-20T06:26:06;9.23;;;5.20;;
25948;SDS011;13961;51.178;4.448;2023-05-20T06:28:32;7.10;;;4.68;;
25948;SDS011;13961;51.178;4.448;2023-05-20T06:30:58;6.55;;;4.15;;
25948;SDS011;13961;51.178;4.448;2023-05-20T06:33:23;8.50;;;4.13;;
25948;SDS011;13961;51.178;4.448;2023-05-20T06:35:50;5.53;;;4.07;;
25948;SDS011;13961;51.178;4.448;2023-05-20T06:38:20;7.07;;;4.28;;
25948;SDS011;13961;51.178;4.448;2023-05-20T06:40:49;8.80;;;4.30;;
25948;SDS011;13961;51.178;4.448;2023-05-20T06:43:16;7.53;;;4.53;;
25948;SDS011;13961;51.178;4.448;2023-05-20T06:45:42;7.43;;;4.65;;
25948;SDS011;13961;51.178;4.448;2023-05-20T06:48:08;7.18;;;4.13;;
25948;SDS011;13961;51.178;4.448;2023-05-20T06:50:33;7.90;;;4.63;;
25948;SDS011;13961;51.178;4.448;2023-05-20T06:52:59;8.55;;;4.75;;
25948;SDS011;13961;51.178;4.448;2023-05-20T06:55:28;7.40;;;3.90;;
25948;SDS011;13961;51.178;4.448;2023-05-20T06:57:54;5.47;;;4.32;;
25948;SDS011;13961;51.178;4.448;2023-05-20T07:00:20;7.97;;;4.32;;
25948;SDS011;13961;51.178;4.448;2023-05-20T07:02:46;6.57;;;4.38;;
25948;SDS011;13961;51.178;4.448;2023-05-20T07:05:12;8.27;;;4.43;;
25948;SDS011;13961;51.178;4.448;2023-05-20T07:07:37;6.78;;;4.70;;
25948;SDS011;13961;51.178;4.448;2023-05-20T07:10:03;7.38;;;4.60;;
25948;SDS011;13961;51.178;4.448;2023-05-20T07:12:30;10.50;;;4.10;;
25948;SDS011;13961;51.178;4.448;2023-05-20T07:14:56;10.40;;;4.93;;
25948;SDS011;13961;51.178;4.448;2023-05-20T07:17:22;6.00;;;4.18;;
25948;SDS011;13961;51.178;4.448;2023-05-20T07:19:49;6.55;;;4.57;;
25948;SDS011;13961;51.178;4.448;2023-05-20T07:22:17;6.03;;;4.38;;
25948;SDS011;13961;51.178;4.448;2023-05-20T07:24:44;7.60;;;4.70;;
25948;SDS011;13961;51.178;4.448;2023-05-20T07:27:09;8.80;;;4.55;;
25948;SDS011;13961;51.178;4.448;2023-05-20T07:29:35;4.88;;;4.22;;
25948;SDS011;13961;51.178;4.448;2023-05-20T07:32:02;6.45;;;4.45;;
25948;SDS011;13961;51.178;4.448;2023-05-20T07:34:29;8.05;;;4.20;;
25948;SDS011;13961;51.178;4.448;2023-05-20T07:36:55;5.82;;;4.25;;
25948;SDS011;13961;51.178;4.448;2023-05-20T07:39:21;6.88;;;4.25;;
25948;SDS011;13961;51.178;4.448;2023-05-20T07:41:48;6.72;;;4.32;;
25948;SDS011;13961;51.178;4.448;2023-05-20T07:44:16;7.03;;;4.10;;
25948;SDS011;13961;51.178;4.448;2023-05-20T07:46:48;6.25;;;4.00;;
25948;SDS011;13961;51.178;4.448;2023-05-20T07:49:14;6.93;;;3.88;;
25948;SDS011;13961;51.178;4.448;2023-05-20T07:51:39;6.68;;;4.15;;
25948;SDS011;13961;51.178;4.448;2023-05-20T07:54:05;5.88;;;3.50;;
25948;SDS011;13961;51.178;4.448;2023-05-20T07:56:31;4.97;;;3.90;;
25948;SDS011;13961;51.178;4.448;2023-05-20T07:59:00;6.65;;;4.20;;
25948;SDS011;13961;51.178;4.448;2023-05-20T08:01:27;6.35;;;4.20;;
25948;SDS011;13961;51.178;4.448;2023-05-20T08:03:53;5.72;;;4.25;;
25948;SDS011;13961;51.178;4.448;2023-05-20T08:06:20;9.32;;;4.53;;
25948;SDS011;13961;51.178;4.448;2023-05-20T08:08:46;5.63;;;3.90;;
25948;SDS011;13961;51.178;4.448;2023-05-20T08:11:12;7.97;;;4.10;;
25948;SDS011;13961;51.178;4.448;2023-05-20T08:13:38;5.28;;;3.80;;
25948;SDS011;13961;51.178;4.448;2023-05-20T08:16:04;7.88;;;4.03;;
25948;SDS011;13961;51.178;4.448;2023-05-20T08:18:30;7.88;;;3.70;;
25948;SDS011;13961;51.178;4.448;2023-05-20T08:20:57;5.15;;;3.75;;
25948;SDS011;13961;51.178;4.448;2023-05-20T08:23:24;4.38;;;3.70;;
25948;SDS011;13961;51.178;4.448;2023-05-20T08:25:50;5.40;;;3.60;;
25948;SDS011;13961;51.178;4.448;2023-05-20T08:28:16;5.00;;;3.20;;
25948;SDS011;13961;51.178;4.448;2023-05-20T08:30:42;6.22;;;3.70;;
25948;SDS011;13961;51.178;4.448;2023-05-20T08:33:08;7.70;;;3.70;;
25948;SDS011;13961;51.178;4.448;2023-05-20T08:35:34;5.53;;;3.33;;
25948;SDS011;13961;51.178;4.448;2023-05-20T08:38:03;6.90;;;3.22;;
25948;SDS011;13961;51.178;4.448;2023-05-20T08:40:29;7.93;;;3.08;;
25948;SDS011;13961;51.178;4.448;2023-05-20T08:42:55;5.88;;;3.40;;
25948;SDS011;13961;51.178;4.448;2023-05-20T08:45:23;4.95;;;3.28;;
25948;SDS011;13961;51.178;4.448;2023-05-20T08:47:51;6.72;;;3.30;;
25948;SDS011;13961;51.178;4.448;2023-05-20T08:50:17;6.78;;;3.17;;
25948;SDS011;13961;51.178;4.448;2023-05-20T08:52:45;4.90;;;3.00;;
25948;SDS011;13961;51.178;4.448;2023-05-20T08:55:13;5.45;;;3.13;;
25948;SDS011;13961;51.178;4.448;2023-05-20T08:57:41;4.60;;;2.72;;
25948;SDS011;13961;51.178;4.448;2023-05-20T09:00:10;5.25;;;2.80;;
25948;SDS011;13961;51.178;4.448;2023-05-20T09:02:38;4.43;;;3.08;;
25948;SDS011;13961;51.178;4.448;2023-05-20T09:05:04;4.03;;;2.90;;
25948;SDS011;13961;51.178;4.448;2023-05-20T09:07:30;5.57;;;3.30;;
25948;SDS011;13961;51.178;4.448;2023-05-20T09:09:56;3.60;;;2.83;;
25948;SDS011;13961;51.178;4.448;2023-05-20T09:12:22;6.30;;;2.83;;
25948;SDS011;13961;51.178;4.448;2023-05-20T09:14:48;8.23;;;3.03;;
25948;SDS011;13961;51.178;4.448;2023-05-20T09:17:15;4.10;;;3.00;;
25948;SDS011;13961;51.178;4.448;2023-05-20T09:19:42;6.32;;;2.97;;
25948;SDS011;13961;51.178;4.448;2023-05-20T09:22:08;5.13;;;2.50;;
25948;SDS011;13961;51.178;4.448;2023-05-20T09:24:34;4.25;;;3.28;;
25948;SDS011;13961;51.178;4.448;2023-05-20T09:26:59;5.43;;;3.25;;
25948;SDS011;13961;51.178;4.448;2023-05-20T09:29:25;5.90;;;3.17;;
25948;SDS011;13961;51.178;4.448;2023-05-20T09:31:51;5.72;;;3.22;;
25948;SDS011;13961;51.178;4.448;2023-05-20T09:34:20;3.33;;;2.67;;
25948;SDS011;13961;51.178;4.448;2023-05-20T09:36:47;5.82;;;2.70;;
25948;SDS011;13961;51.178;4.448;2023-05-20T09:39:19;11.80;;;3.05;;
25948;SDS011;13961;51.178;4.448;2023-05-20T09:44:25;4.25;;;2.60;;
25948;SDS011;13961;51.178;4.448;2023-05-20T09:46:53;5.82;;;3.00;;
25948;SDS011;13961;51.178;4.448;2023-05-20T09:49:20;4.60;;;2.50;;
25948;SDS011;13961;51.178;4.448;2023-05-20T09:51:48;4.43;;;2.60;;
25948;SDS011;13961;51.178;4.448;2023-05-20T09:54:16;3.03;;;2.45;;
25948;SDS011;13961;51.178;4.448;2023-05-20T09:56:43;3.90;;;2.90;;
25948;SDS011;13961;51.178;4.448;2023-05-20T09:59:11;5.70;;;2.90;;
25948;SDS011;13961;51.178;4.448;2023-05-20T10:01:41;4.70;;;2.72;;
25948;SDS011;13961;51.178;4.448;2023-05-20T10:04:08;4.53;;;2.78;;
25948;SDS011;13961;51.178;4.448;2023-05-20T10:07:00;6.38;;;3.28;;
25948;SDS011;13961;51.178;4.448;2023-05-20T10:09:31;6.43;;;2.70;;
25948;SDS011;13961;51.178;4.448;2023-05-20T10:12:45;3.88;;;2.50;;
25948;SDS011;13961;51.178;4.448;2023-05-20T10:15:38;5.95;;;2.83;;
25948;SDS011;13961;51.178;4.448;2023-05-20T10:21:15;4.57;;;2.50;;
25948;SDS011;13961;51.178;4.448;2023-05-20T10:23:51;5.68;;;2.88;;
25948;SDS011;13961;51.178;4.448;2023-05-20T10:26:17;3.92;;;2.50;;
25948;SDS011;13961;51.178;4.448;2023-05-20T10:28:44;3.42;;;2.70;;
25948;SDS011;13961;51.178;4.448;2023-05-20T10:31:19;3.60;;;2.75;;
25948;SDS011;13961;51.178;4.448;2023-05-20T10:33:46;7.95;;;2.83;;
25948;SDS011;13961;51.178;4.448;2023-05-20T10:36:22;4.45;;;2.80;;
25948;SDS011;13961;51.178;4.448;2023-05-20T10:38:54;3.47;;;2.47;;
25948;SDS011;13961;51.178;4.448;2023-05-20T10:41:21;4.22;;;2.28;;
25948;SDS011;13961;51.178;4.448;2023-05-20T10:44:02;2.83;;;2.23;;
25948;SDS011;13961;51.178;4.448;2023-05-20T10:46:30;4.75;;;3.10;;
25948;SDS011;13961;51.178;4.448;2023-05-20T10:48:57;4.30;;;2.67;;
25948;SDS011;13961;51.178;4.448;2023-05-20T10:51:23;4.55;;;2.70;;
25948;SDS011;13961;51.178;4.448;2023-05-20T10:53:53;3.20;;;2.35;;
25948;SDS011;13961;51.178;4.448;2023-05-20T10:56:20;3.70;;;3.03;;
25948;SDS011;13961;51.178;4.448;2023-05-20T10:58:50;7.95;;;2.80;;
25948;SDS011;13961;51.178;4.448;2023-05-20T11:01:17;3.67;;;2.80;;
25948;SDS011;13961;51.178;4.448;2023-05-20T11:03:45;5.75;;;3.20;;
25948;SDS011;13961;51.178;4.448;2023-05-20T11:06:13;3.28;;;2.65;;
25948;SDS011;13961;51.178;4.448;2023-05-20T11:08:40;3.85;;;2.90;;
25948;SDS011;13961;51.178;4.448;2023-05-20T11:11:06;6.35;;;3.33;;
25948;SDS011;13961;51.178;4.448;2023-05-20T11:13:34;4.10;;;2.80;;
25948;SDS011;13961;51.178;4.448;2023-05-20T11:16:00;4.68;;;2.92;;
25948;SDS011;13961;51.178;4.448;2023-05-20T11:18:27;6.53;;;2.83;;
25948;SDS011;13961;51.178;4.448;2023-05-20T11:20:56;3.03;;;2.72;;
25948;SDS011;13961;51.178;4.448;2023-05-20T11:23:24;6.78;;;3.17;;
25948;SDS011;13961;51.178;4.448;2023-05-20T11:25:54;6.05;;;2.85;;
25948;SDS011;13961;51.178;4.448;2023-05-20T11:28:21;5.78;;;3.45;;
25948;SDS011;13961;51.178;4.448;2023-05-20T11:30:48;3.80;;;2.90;;
25948;SDS011;13961;51.178;4.448;2023-05-20T11:33:15;6.43;;;2.90;;
25948;SDS011;13961;51.178;4.448;2023-05-20T11:35:46;5.03;;;3.20;;
25948;SDS011;13961;51.178;4.448;2023-05-20T11:38:13;8.48;;;2.92;;
25948;SDS011;13961;51.178;4.448;2023-05-20T11:40:43;4.55;;;3.33;;
25948;SDS011;13961;51.178;4.448;2023-05-20T11:43:15;3.78;;;2.58;;
25948;SDS011;13961;51.178;4.448;2023-05-20T11:45:41;4.47;;;3.00;;
25948;SDS011;13961;51.178;4.448;2023-05-20T11:48:09;4.43;;;2.75;;
25948;SDS011;13961;51.178;4.448;2023-05-20T11:50:37;6.53;;;2.80;;
25948;SDS011;13961;51.178;4.448;2023-05-20T11:53:08;5.50;;;2.97;;
25948;SDS011;13961;51.178;4.448;2023-05-20T11:55:51;4.03;;;3.13;;
25948;SDS011;13961;51.178;4.448;2023-05-20T11:58:22;6.18;;;2.83;;
25948;SDS011;13961;51.178;4.448;2023-05-20T12:00:49;5.28;;;3.17;;
25948;SDS011;13961;51.178;4.448;2023-05-20T12:03:15;3.47;;;3.10;;
25948;SDS011;13961;51.178;4.448;2023-05-20T12:05:41;5.43;;;3.25;;
25948;SDS011;13961;51.178;4.448;2023-05-20T12:08:08;8.00;;;3.33;;
25948;SDS011;13961;51.178;4.448;2023-05-20T12:10:35;4.15;;;3.00;;
25948;SDS011;13961;51.178;4.448;2023-05-20T12:13:02;5.18;;;3.33;;
25948;SDS011;13961;51.178;4.448;2023-05-20T12:15:28;5.53;;;3.35;;
25948;SDS011;13961;51.178;4.448;2023-05-20T12:17:54;3.20;;;2.90;;
25948;SDS011;13961;51.178;4.448;2023-05-20T12:20:21;4.32;;;2.65;;
25948;SDS011;13961;51.178;4.448;2023-05-20T12:22:48;4.40;;;3.30;;
25948;SDS011;13961;51.178;4.448;2023-05-20T12:25:15;6.40;;;3.45;;
25948;SDS011;13961;51.178;4.448;2023-05-20T12:27:46;7.43;;;3.60;;
25948;SDS011;13961;51.178;4.448;2023-05-20T12:30:19;4.53;;;3.60;;
25948;SDS011;13961;51.178;4.448;2023-05-20T12:32:46;5.53;;;3.35;;
25948;SDS011;13961;51.178;4.448;2023-05-20T12:35:14;4.32;;;3.47;;
25948;SDS011;13961;51.178;4.448;2023-05-20T12:37:40;8.55;;;3.72;;
25948;SDS011;13961;51.178;4.448;2023-05-20T12:40:07;4.40;;;3.55;;
25948;SDS011;13961;51.178;4.448;2023-05-20T12:42:39;5.68;;;3.40;;
25948;SDS011;13961;51.178;4.448;2023-05-20T12:45:10;4.55;;;3.50;;
25948;SDS011;13961;51.178;4.448;2023-05-20T12:47:37;5.43;;;3.65;;
25948;SDS011;13961;51.178;4.448;2023-05-20T12:50:03;3.72;;;3.08;;
25948;SDS011;13961;51.178;4.448;2023-05-20T12:52:32;6.40;;;3.65;;
25948;SDS011;13961;51.178;4.448;2023-05-20T12:55:00;4.30;;;3.50;;
25948;SDS011;13961;51.178;4.448;2023-05-20T12:57:26;5.72;;;2.90;;
25948;SDS011;13961;51.178;4.448;2023-05-20T12:59:52;6.47;;;3.30;;
25948;SDS011;13961;51.178;4.448;2023-05-20T13:02:18;5.22;;;3.13;;
25948;SDS011;13961;51.178;4.448;2023-05-20T13:04:44;5.78;;;3.17;;
25948;SDS011;13961;51.178;4.448;2023-05-20T13:07:10;5.22;;;3.58;;
25948;SDS011;13961;51.178;4.448;2023-05-20T13:09:36;6.03;;;3.17;;
25948;SDS011;13961;51.178;4.448;2023-05-20T13:12:02;9.85;;;3.78;;
25948;SDS011;13961;51.178;4.448;2023-05-20T13:14:28;4.40;;;3.15;;
25948;SDS011;13961;51.178;4.448;2023-05-20T13:16:54;5.00;;;3.53;;
25948;SDS011;13961;51.178;4.448;2023-05-20T13:19:21;4.20;;;3.40;;
25948;SDS011;13961;51.178;4.448;2023-05-20T13:21:53;3.75;;;3.33;;
25948;SDS011;13961;51.178;4.448;2023-05-20T13:24:19;4.10;;;2.92;;
25948;SDS011;13961;51.178;4.448;2023-05-20T13:26:44;5.65;;;3.10;;
25948;SDS011;13961;51.178;4.448;2023-05-20T13:29:13;5.22;;;3.40;;
25948;SDS011;13961;51.178;4.448;2023-05-20T13:32:12;5.10;;;2.88;;
25948;SDS011;13961;51.178;4.448;2023-05-20T13:34:31;3.50;;;3.20;;
25948;SDS011;13961;51.178;4.448;2023-05-20T13:36:57;8.10;;;3.22;;
25948;SDS011;13961;51.178;4.448;2023-05-20T13:39:23;3.95;;;3.25;;
25948;SDS011;13961;51.178;4.448;2023-05-20T13:41:49;5.07;;;3.55;;
25948;SDS011;13961;51.178;4.448;2023-05-20T13:44:14;4.50;;;3.03;;
25948;SDS011;13961;51.178;4.448;2023-05-20T13:46:40;4.07;;;3.63;;
25948;SDS011;13961;51.178;4.448;2023-05-20T13:49:06;5.57;;;3.60;;
25948;SDS011;13961;51.178;4.448;2023-05-20T13:51:31;6.95;;;3.78;;
25948;SDS011;13961;51.178;4.448;2023-05-20T13:53:57;5.38;;;3.38;;
25948;SDS011;13961;51.178;4.448;2023-05-20T13:56:23;3.92;;;2.92;;
25948;SDS011;13961;51.178;4.448;2023-05-20T13:58:49;5.68;;;2.88;;
25948;SDS011;13961;51.178;4.448;2023-05-20T14:01:14;4.07;;;2.80;;
25948;SDS011;13961;51.178;4.448;2023-05-20T14:03:40;3.80;;;3.15;;
25948;SDS011;13961;51.178;4.448;2023-05-20T14:06:06;3.78;;;3.35;;
25948;SDS011;13961;51.178;4.448;2023-05-20T14:08:33;3.17;;;2.88;;
25948;SDS011;13961;51.178;4.448;2023-05-20T14:10:58;7.35;;;2.97;;
25948;SDS011;13961;51.178;4.448;2023-05-20T14:13:24;5.00;;;3.13;;
25948;SDS011;13961;51.178;4.448;2023-05-20T14:15:50;3.72;;;3.15;;
25948;SDS011;13961;51.178;4.448;2023-05-20T14:18:17;3.45;;;2.90;;
25948;SDS011;13961;51.178;4.448;2023-05-20T14:20:43;4.05;;;2.97;;
25948;SDS011;13961;51.178;4.448;2023-05-20T14:23:09;4.13;;;2.92;;
25948;SDS011;13961;51.178;4.448;2023-05-20T14:25:36;4.90;;;3.30;;
25948;SDS011;13961;51.178;4.448;2023-05-20T14:28:01;4.50;;;3.03;;
25948;SDS011;13961;51.178;4.448;2023-05-20T14:30:27;3.88;;;3.47;;
25948;SDS011;13961;51.178;4.448;2023-05-20T14:32:53;3.42;;;3.05;;
25948;SDS011;13961;51.178;4.448;2023-05-20T14:35:19;4.65;;;3.17;;
25948;SDS011;13961;51.178;4.448;2023-05-20T14:37:45;3.25;;;2.95;;
25948;SDS011;13961;51.178;4.448;2023-05-20T14:40:11;7.28;;;2.80;;
25948;SDS011;13961;51.178;4.448;2023-05-20T14:42:37;3.50;;;2.60;;
25948;SDS011;13961;51.178;4.448;2023-05-20T14:45:03;4.45;;;2.50;;
25948;SDS011;13961;51.178;4.448;2023-05-20T14:47:29;4.03;;;2.70;;
25948;SDS011;13961;51.178;4.448;2023-05-20T14:49:55;4.22;;;2.92;;